sensor_id;sensor_type;location;lat;lon;timestamp;pressure;altitude;pressure_sealevel;temperature;humidity
58973;BME280;44750;52.040;7.472;2023-06-22T00:00:47;100460.59;;;20.68;nan
58973;BME280;44750;52.040;7.472;2023-06-22T00:05:48;100472.03;;;20.72;nan
58973;BME280;44750;52.040;7.472;2023-06-22T00:10:48;100457.44;;;20.46;nan
58973;BME280;44750;52.040;7.472;2023-06-22T00:15:49;100476.63;;;20.53;nan
58973;BME280;44750;52.040;7.472;2023-06-22T00:20:49;100487.38;;;20.54;nan
58973;BME280;44750;52.040;7.472;2023-06-22T00:25:49;100474.63;;;20.35;nan
58973;BME280;44750;52.040;7.472;2023-06-22T00:30:50;100510.56;;;20.40;nan
58973;BME280;44750;52.040;7.472;2023-06-22T00:35:50;100491.06;;;20.16;nan
58973;BME280;44750;52.040;7.472;2023-06-22T00:40:50;100608.06;;;20.37;nan
58973;BME280;44750;52.040;7.472;2023-06-22T00:45:50;100593.81;;;20.15;nan
58973;BME280;44750;52.040;7.472;2023-06-22T00:50:51;100605.88;;;20.14;nan
58973;BME280;44750;52.040;7.472;2023-06-22T00:55:51;100628.47;;;20.16;nan
58973;BME280;44750;52.040;7.472;2023-06-22T01:00:51;100614.59;;;19.98;nan
58973;BME280;44750;52.040;7.472;2023-06-22T01:05:55;100650.25;;;20.11;nan
58973;BME280;44750;52.040;7.472;2023-06-22T01:11:10;100645.19;;;20.08;nan
58973;BME280;44750;52.040;7.472;2023-06-22T01:16:34;100674.16;;;20.11;nan
58973;BME280;44750;52.040;7.472;2023-06-22T01:21:35;100659.47;;;19.85;nan
58973;BME280;44750;52.040;7.472;2023-06-22T01:26:52;100711.41;;;19.93;nan
58973;BME280;44750;52.040;7.472;2023-06-22T01:31:55;100663.91;;;19.52;nan
58973;BME280;44750;52.040;7.472;2023-06-22T01:36:56;100731.09;;;19.63;nan
58973;BME280;44750;52.040;7.472;2023-06-22T01:41:57;100759.16;;;19.72;nan
58973;BME280;44750;52.040;7.472;2023-06-22T01:46:58;100777.13;;;19.81;nan
58973;BME280;44750;52.040;7.472;2023-06-22T01:51:58;100770.16;;;19.72;nan
58973;BME280;44750;52.040;7.472;2023-06-22T01:56:59;100755.59;;;19.58;nan
58973;BME280;44750;52.040;7.472;2023-06-22T02:02:08;100801.41;;;19.71;nan
58973;BME280;44750;52.040;7.472;2023-06-22T02:07:12;100806.28;;;19.69;nan
58973;BME280;44750;52.040;7.472;2023-06-22T02:12:17;100814.75;;;19.81;nan
58973;BME280;44750;52.040;7.472;2023-06-22T02:17:17;100805.22;;;19.77;nan
58973;BME280;44750;52.040;7.472;2023-06-22T02:22:18;100809.84;;;19.76;nan
58973;BME280;44750;52.040;7.472;2023-06-22T02:27:18;100799.72;;;19.57;nan
58973;BME280;44750;52.040;7.472;2023-06-22T02:32:18;100794.22;;;19.43;nan
58973;BME280;44750;52.040;7.472;2023-06-22T02:37:18;100806.44;;;19.34;nan
58973;BME280;44750;52.040;7.472;2023-06-22T02:42:19;100799.28;;;19.19;nan
58973;BME280;44750;52.040;7.472;2023-06-22T02:47:19;100827.53;;;19.20;nan
58973;BME280;44750;52.040;7.472;2023-06-22T02:52:19;100860.94;;;19.44;nan
58973;BME280;44750;52.040;7.472;2023-06-22T02:57:19;100851.22;;;19.41;nan
58973;BME280;44750;52.040;7.472;2023-06-22T03:02:20;100844.88;;;19.34;nan
58973;BME280;44750;52.040;7.472;2023-06-22T03:07:20;100848.22;;;19.23;nan
58973;BME280;44750;52.040;7.472;2023-06-22T03:12:20;100865.78;;;19.35;nan
58973;BME280;44750;52.040;7.472;2023-06-22T03:17:20;100837.91;;;19.25;nan
58973;BME280;44750;52.040;7.472;2023-06-22T03:22:21;100831.31;;;19.12;nan
58973;BME280;44750;52.040;7.472;2023-06-22T03:27:21;100853.25;;;19.12;nan
58973;BME280;44750;52.040;7.472;2023-06-22T03:32:21;100880.31;;;19.15;nan
58973;BME280;44750;52.040;7.472;2023-06-22T03:37:21;100896.34;;;19.18;nan
58973;BME280;44750;52.040;7.472;2023-06-22T03:42:22;100901.84;;;19.18;nan
58973;BME280;44750;52.040;7.472;2023-06-22T03:47:22;100909.03;;;19.19;nan
58973;BME280;44750;52.040;7.472;2023-06-22T03:52:22;100890.78;;;18.98;nan
58973;BME280;44750;52.040;7.472;2023-06-22T03:57:22;100909.81;;;19.07;nan
58973;BME280;44750;52.040;7.472;2023-06-22T04:02:23;100898.38;;;19.03;nan
58973;BME280;44750;52.040;7.472;2023-06-22T04:07:23;100917.41;;;19.11;nan
58973;BME280;44750;52.040;7.472;2023-06-22T04:12:24;100929.28;;;19.18;nan
58973;BME280;44750;52.040;7.472;2023-06-22T04:17:24;100939.06;;;19.34;nan
58973;BME280;44750;52.040;7.472;2023-06-22T04:22:24;100935.06;;;19.44;nan
58973;BME280;44750;52.040;7.472;2023-06-22T04:27:24;100898.13;;;19.40;nan
58973;BME280;44750;52.040;7.472;2023-06-22T04:32:24;100895.19;;;19.54;nan
58973;BME280;44750;52.040;7.472;2023-06-22T04:37:25;100917.41;;;19.80;nan
58973;BME280;44750;52.040;7.472;2023-06-22T04:42:28;100900.97;;;20.00;nan
58973;BME280;44750;52.040;7.472;2023-06-22T04:47:28;100853.44;;;19.93;nan
58973;BME280;44750;52.040;7.472;2023-06-22T04:52:28;100837.34;;;19.90;nan
58973;BME280;44750;52.040;7.472;2023-06-22T04:57:29;100862.69;;;20.32;nan
58973;BME280;44750;52.040;7.472;2023-06-22T05:02:29;100786.19;;;20.15;nan
58973;BME280;44750;52.040;7.472;2023-06-22T05:07:29;100814.66;;;20.41;nan
58973;BME280;44750;52.040;7.472;2023-06-22T05:12:29;100779.69;;;20.55;nan
58973;BME280;44750;52.040;7.472;2023-06-22T05:17:30;100691.44;;;20.25;nan
58973;BME280;44750;52.040;7.472;2023-06-22T05:22:30;100687.63;;;20.26;nan
58973;BME280;44750;52.040;7.472;2023-06-22T05:27:30;100707.41;;;20.48;nan
58973;BME280;44750;52.040;7.472;2023-06-22T05:32:31;100678.44;;;20.45;nan
58973;BME280;44750;52.040;7.472;2023-06-22T05:37:31;100659.88;;;20.34;nan
58973;BME280;44750;52.040;7.472;2023-06-22T05:42:31;100663.53;;;20.28;nan
58973;BME280;44750;52.040;7.472;2023-06-22T05:47:31;100718.28;;;20.75;nan
58973;BME280;44750;52.040;7.472;2023-06-22T05:52:32;100658.47;;;20.63;nan
58973;BME280;44750;52.040;7.472;2023-06-22T05:57:32;100699.09;;;21.00;nan
58973;BME280;44750;52.040;7.472;2023-06-22T06:02:33;100687.13;;;21.13;nan
58973;BME280;44750;52.040;7.472;2023-06-22T06:07:33;100726.75;;;21.87;nan
58973;BME280;44750;52.040;7.472;2023-06-22T06:12:33;100709.75;;;22.28;nan
58973;BME280;44750;52.040;7.472;2023-06-22T06:17:33;100657.44;;;22.40;nan
58973;BME280;44750;52.040;7.472;2023-06-22T06:22:34;100556.16;;;21.98;nan
58973;BME280;44750;52.040;7.472;2023-06-22T06:27:34;100543.38;;;22.03;nan
58973;BME280;44750;52.040;7.472;2023-06-22T06:32:34;100561.44;;;22.18;nan
58973;BME280;44750;52.040;7.472;2023-06-22T06:37:42;100528.91;;;22.08;nan
58973;BME280;44750;52.040;7.472;2023-06-22T06:42:44;100536.03;;;22.28;nan
58973;BME280;44750;52.040;7.472;2023-06-22T06:47:46;100479.41;;;22.13;nan
58973;BME280;44750;52.040;7.472;2023-06-22T06:52:46;100528.78;;;22.45;nan
58973;BME280;44750;52.040;7.472;2023-06-22T06:57:46;100487.44;;;22.45;nan
58973;BME280;44750;52.040;7.472;2023-06-22T07:02:46;100450.44;;;22.23;nan
58973;BME280;44750;52.040;7.472;2023-06-22T07:07:47;100470.28;;;22.43;nan
58973;BME280;44750;52.040;7.472;2023-06-22T07:12:48;100440.06;;;22.48;nan
58973;BME280;44750;52.040;7.472;2023-06-22T07:17:49;100438.28;;;22.54;nan
58973;BME280;44750;52.040;7.472;2023-06-22T07:22:49;100458.16;;;22.56;nan
58973;BME280;44750;52.040;7.472;2023-06-22T07:28:03;100427.59;;;22.58;nan
58973;BME280;44750;52.040;7.472;2023-06-22T07:33:04;100414.88;;;22.68;nan
58973;BME280;44750;52.040;7.472;2023-06-22T07:38:04;100407.06;;;22.65;nan
58973;BME280;44750;52.040;7.472;2023-06-22T07:43:04;100440.53;;;22.93;nan
58973;BME280;44750;52.040;7.472;2023-06-22T07:48:04;100408.50;;;22.80;nan
58973;BME280;44750;52.040;7.472;2023-06-22T07:53:05;100436.81;;;22.87;nan
58973;BME280;44750;52.040;7.472;2023-06-22T07:58:05;100421.56;;;22.84;nan
58973;BME280;44750;52.040;7.472;2023-06-22T08:03:05;100382.00;;;22.79;nan
58973;BME280;44750;52.040;7.472;2023-06-22T08:08:05;100405.88;;;22.85;nan
58973;BME280;44750;52.040;7.472;2023-06-22T08:13:06;100385.47;;;22.86;nan
58973;BME280;44750;52.040;7.472;2023-06-22T08:18:06;100407.63;;;23.03;nan
58973;BME280;44750;52.040;7.472;2023-06-22T08:23:06;100422.28;;;23.15;nan
58973;BME280;44750;52.040;7.472;2023-06-22T08:28:07;100430.72;;;23.37;nan
58973;BME280;44750;52.040;7.472;2023-06-22T08:33:07;100407.31;;;23.40;nan
58973;BME280;44750;52.040;7.472;2023-06-22T08:38:07;100384.84;;;23.36;nan
58973;BME280;44750;52.040;7.472;2023-06-22T08:43:07;100390.94;;;23.50;nan
58973;BME280;44750;52.040;7.472;2023-06-22T08:48:07;100424.97;;;23.68;nan
58973;BME280;44750;52.040;7.472;2023-06-22T08:53:08;100423.88;;;24.15;nan
58973;BME280;44750;52.040;7.472;2023-06-22T08:58:08;100365.22;;;24.30;nan
58973;BME280;44750;52.040;7.472;2023-06-22T09:03:08;100447.97;;;25.27;nan
58973;BME280;44750;52.040;7.472;2023-06-22T09:08:10;100344.31;;;25.23;nan
58973;BME280;44750;52.040;7.472;2023-06-22T09:13:11;100233.56;;;24.29;nan
58973;BME280;44750;52.040;7.472;2023-06-22T09:18:11;100312.16;;;24.72;nan
58973;BME280;44750;52.040;7.472;2023-06-22T09:23:11;100302.13;;;24.88;nan
58973;BME280;44750;52.040;7.472;2023-06-22T09:28:11;100277.47;;;24.86;nan
58973;BME280;44750;52.040;7.472;2023-06-22T09:33:12;100253.47;;;24.70;nan
58973;BME280;44750;52.040;7.472;2023-06-22T09:38:12;100234.31;;;24.91;nan
58973;BME280;44750;52.040;7.472;2023-06-22T09:43:12;100253.28;;;25.04;nan
58973;BME280;44750;52.040;7.472;2023-06-22T09:48:15;100257.63;;;24.95;nan
58973;BME280;44750;52.040;7.472;2023-06-22T09:53:15;100311.56;;;25.69;nan
58973;BME280;44750;52.040;7.472;2023-06-22T09:58:15;100258.72;;;25.48;nan
58973;BME280;44750;52.040;7.472;2023-06-22T10:03:16;100263.22;;;25.54;nan
58973;BME280;44750;52.040;7.472;2023-06-22T10:08:16;100220.78;;;25.49;nan
58973;BME280;44750;52.040;7.472;2023-06-22T10:13:16;100231.44;;;25.35;nan
58973;BME280;44750;52.040;7.472;2023-06-22T10:18:17;100211.28;;;25.40;nan
58973;BME280;44750;52.040;7.472;2023-06-22T10:23:18;100219.97;;;25.53;nan
58973;BME280;44750;52.040;7.472;2023-06-22T10:28:19;100172.91;;;25.26;nan
58973;BME280;44750;52.040;7.472;2023-06-22T10:33:19;100211.25;;;25.34;nan
58973;BME280;44750;52.040;7.472;2023-06-22T10:38:19;100221.31;;;25.46;nan
58973;BME280;44750;52.040;7.472;2023-06-22T10:43:20;100202.78;;;25.51;nan
58973;BME280;44750;52.040;7.472;2023-06-22T10:48:20;100174.41;;;25.39;nan
58973;BME280;44750;52.040;7.472;2023-06-22T10:53:20;100167.69;;;25.30;nan
58973;BME280;44750;52.040;7.472;2023-06-22T10:58:20;100150.09;;;25.14;nan
58973;BME280;44750;52.040;7.472;2023-06-22T11:03:21;100182.81;;;25.17;nan
58973;BME280;44750;52.040;7.472;2023-06-22T11:08:21;100151.22;;;24.85;nan
58973;BME280;44750;52.040;7.472;2023-06-22T11:13:21;100170.75;;;25.01;nan
58973;BME280;44750;52.040;7.472;2023-06-22T11:18:21;100150.34;;;25.12;nan
58973;BME280;44750;52.040;7.472;2023-06-22T11:23:22;100105.25;;;25.17;nan
58973;BME280;44750;52.040;7.472;2023-06-22T11:28:22;100136.56;;;25.50;nan
58973;BME280;44750;52.040;7.472;2023-06-22T11:33:22;100176.06;;;25.73;nan
58973;BME280;44750;52.040;7.472;2023-06-22T11:38:23;100162.50;;;25.81;nan
58973;BME280;44750;52.040;7.472;2023-06-22T11:43:23;100211.22;;;26.05;nan
58973;BME280;44750;52.040;7.472;2023-06-22T11:48:24;100173.78;;;26.12;nan
58973;BME280;44750;52.040;7.472;2023-06-22T11:53:27;100157.66;;;26.04;nan
58973;BME280;44750;52.040;7.472;2023-06-22T11:58:27;100170.31;;;25.90;nan
58973;BME280;44750;52.040;7.472;2023-06-22T12:03:27;100120.59;;;25.67;nan
58973;BME280;44750;52.040;7.472;2023-06-22T12:08:28;100130.50;;;25.58;nan
58973;BME280;44750;52.040;7.472;2023-06-22T12:13:28;100130.31;;;25.70;nan
58973;BME280;44750;52.040;7.472;2023-06-22T12:18:28;100088.09;;;25.52;nan
58973;BME280;44750;52.040;7.472;2023-06-22T12:23:28;100113.03;;;25.58;nan
58973;BME280;44750;52.040;7.472;2023-06-22T12:28:28;100132.84;;;25.39;nan
58973;BME280;44750;52.040;7.472;2023-06-22T12:33:29;100119.44;;;25.26;nan
58973;BME280;44750;52.040;7.472;2023-06-22T12:38:29;100181.09;;;25.38;nan
58973;BME280;44750;52.040;7.472;2023-06-22T12:43:29;100120.38;;;25.04;nan
58973;BME280;44750;52.040;7.472;2023-06-22T12:48:29;100155.59;;;25.09;nan
58973;BME280;44750;52.040;7.472;2023-06-22T12:53:30;100134.09;;;24.89;nan
58973;BME280;44750;52.040;7.472;2023-06-22T12:58:30;100127.22;;;24.64;nan
58973;BME280;44750;52.040;7.472;2023-06-22T13:03:30;100147.56;;;24.52;nan
58973;BME280;44750;52.040;7.472;2023-06-22T13:08:30;100185.75;;;24.56;nan
58973;BME280;44750;52.040;7.472;2023-06-22T13:13:31;100164.03;;;24.42;nan
58973;BME280;44750;52.040;7.472;2023-06-22T13:18:31;100151.50;;;24.34;nan
58973;BME280;44750;52.040;7.472;2023-06-22T13:23:31;100166.34;;;24.28;nan
58973;BME280;44750;52.040;7.472;2023-06-22T13:28:31;100155.66;;;24.15;nan
58973;BME280;44750;52.040;7.472;2023-06-22T13:33:32;100156.31;;;23.83;nan
58973;BME280;44750;52.040;7.472;2023-06-22T13:38:32;100145.34;;;23.49;nan
58973;BME280;44750;52.040;7.472;2023-06-22T13:43:32;100185.66;;;23.67;nan
58973;BME280;44750;52.040;7.472;2023-06-22T13:48:32;100226.63;;;23.70;nan
58973;BME280;44750;52.040;7.472;2023-06-22T13:53:33;100273.72;;;23.80;nan
58973;BME280;44750;52.040;7.472;2023-06-22T13:58:33;100343.94;;;24.13;nan
58973;BME280;44750;52.040;7.472;2023-06-22T14:03:33;100347.81;;;23.95;nan
58973;BME280;44750;52.040;7.472;2023-06-22T14:08:33;100412.41;;;24.06;nan
58973;BME280;44750;52.040;7.472;2023-06-22T14:13:34;100410.91;;;23.98;nan
58973;BME280;44750;52.040;7.472;2023-06-22T14:18:34;100401.88;;;23.74;nan
58973;BME280;44750;52.040;7.472;2023-06-22T14:23:34;100469.16;;;24.09;nan
58973;BME280;44750;52.040;7.472;2023-06-22T14:28:34;100489.59;;;24.25;nan
58973;BME280;44750;52.040;7.472;2023-06-22T14:33:34;100515.94;;;24.27;nan
58973;BME280;44750;52.040;7.472;2023-06-22T14:38:35;100465.84;;;23.83;nan
58973;BME280;44750;52.040;7.472;2023-06-22T14:43:35;100461.00;;;23.73;nan
58973;BME280;44750;52.040;7.472;2023-06-22T14:48:35;100517.53;;;23.82;nan
58973;BME280;44750;52.040;7.472;2023-06-22T14:53:36;100534.72;;;23.84;nan
58973;BME280;44750;52.040;7.472;2023-06-22T14:58:36;100586.66;;;23.94;nan
58973;BME280;44750;52.040;7.472;2023-06-22T15:03:37;100578.94;;;23.84;nan
58973;BME280;44750;52.040;7.472;2023-06-22T15:08:38;100555.09;;;23.54;nan
58973;BME280;44750;52.040;7.472;2023-06-22T15:13:40;100569.16;;;23.53;nan
58973;BME280;44750;52.040;7.472;2023-06-22T15:18:43;100526.81;;;23.35;nan
58973;BME280;44750;52.040;7.472;2023-06-22T15:23:43;100518.66;;;23.17;nan
58973;BME280;44750;52.040;7.472;2023-06-22T15:28:43;100530.63;;;22.87;nan
58973;BME280;44750;52.040;7.472;2023-06-22T15:33:44;100592.81;;;23.01;nan
58973;BME280;44750;52.040;7.472;2023-06-22T15:38:44;100600.25;;;23.01;nan
58973;BME280;44750;52.040;7.472;2023-06-22T15:43:44;100580.63;;;22.67;nan
58973;BME280;44750;52.040;7.472;2023-06-22T15:48:44;100629.47;;;22.66;nan
58973;BME280;44750;52.040;7.472;2023-06-22T15:53:45;100639.06;;;22.64;nan
58973;BME280;44750;52.040;7.472;2023-06-22T15:58:45;100608.69;;;22.52;nan
58973;BME280;44750;52.040;7.472;2023-06-22T16:03:45;100606.97;;;22.51;nan
58973;BME280;44750;52.040;7.472;2023-06-22T16:08:45;100600.13;;;22.42;nan
58973;BME280;44750;52.040;7.472;2023-06-22T16:13:45;100643.94;;;22.50;nan
58973;BME280;44750;52.040;7.472;2023-06-22T16:18:46;100642.34;;;22.42;nan
58973;BME280;44750;52.040;7.472;2023-06-22T16:23:46;100650.78;;;22.29;nan
58973;BME280;44750;52.040;7.472;2023-06-22T16:28:46;100640.56;;;22.29;nan
58973;BME280;44750;52.040;7.472;2023-06-22T16:33:46;100640.19;;;22.26;nan
58973;BME280;44750;52.040;7.472;2023-06-22T16:38:47;100670.84;;;22.17;nan
58973;BME280;44750;52.040;7.472;2023-06-22T16:43:47;100712.50;;;22.09;nan
58973;BME280;44750;52.040;7.472;2023-06-22T16:48:50;100726.19;;;21.97;nan
58973;BME280;44750;52.040;7.472;2023-06-22T16:53:54;100742.31;;;21.75;nan
58973;BME280;44750;52.040;7.472;2023-06-22T16:58:56;100773.09;;;21.72;nan
58973;BME280;44750;52.040;7.472;2023-06-22T17:04:07;100809.19;;;21.64;nan
58973;BME280;44750;52.040;7.472;2023-06-22T17:09:14;100875.41;;;21.44;nan
58973;BME280;44750;52.040;7.472;2023-06-22T17:14:14;100900.09;;;21.18;nan
58973;BME280;44750;52.040;7.472;2023-06-22T17:19:15;100956.38;;;21.29;nan
58973;BME280;44750;52.040;7.472;2023-06-22T17:24:16;100934.03;;;21.05;nan
58973;BME280;44750;52.040;7.472;2023-06-22T17:29:17;100943.63;;;20.83;nan
58973;BME280;44750;52.040;7.472;2023-06-22T17:34:17;100965.03;;;20.47;nan
58973;BME280;44750;52.040;7.472;2023-06-22T17:39:19;101077.13;;;20.45;nan
58973;BME280;44750;52.040;7.472;2023-06-22T17:44:25;101130.63;;;20.43;nan
58973;BME280;44750;52.040;7.472;2023-06-22T17:49:30;101203.38;;;20.40;nan
58973;BME280;44750;52.040;7.472;2023-06-22T17:54:31;101236.16;;;20.42;nan
58973;BME280;44750;52.040;7.472;2023-06-22T17:59:32;101247.06;;;20.21;nan
58973;BME280;44750;52.040;7.472;2023-06-22T18:04:32;101301.66;;;20.25;nan
58973;BME280;44750;52.040;7.472;2023-06-22T18:09:32;101295.81;;;19.99;nan
58973;BME280;44750;52.040;7.472;2023-06-22T18:14:33;101336.56;;;19.96;nan
58973;BME280;44750;52.040;7.472;2023-06-22T18:19:36;101446.06;;;19.99;nan
58973;BME280;44750;52.040;7.472;2023-06-22T18:24:37;101500.19;;;19.98;nan
58973;BME280;44750;52.040;7.472;2023-06-22T18:29:39;101516.28;;;20.01;nan
58973;BME280;44750;52.040;7.472;2023-06-22T18:34:42;101532.88;;;19.93;nan
58973;BME280;44750;52.040;7.472;2023-06-22T18:39:44;101555.28;;;19.90;nan
58973;BME280;44750;52.040;7.472;2023-06-22T18:44:51;101603.50;;;19.93;nan
58973;BME280;44750;52.040;7.472;2023-06-22T18:49:52;101628.59;;;19.90;nan
58973;BME280;44750;52.040;7.472;2023-06-22T18:54:53;101641.16;;;19.99;nan
58973;BME280;44750;52.040;7.472;2023-06-22T19:05:17;101643.63;;;20.09;nan
58973;BME280;44750;52.040;7.472;2023-06-22T19:10:31;101642.06;;;20.21;nan
58973;BME280;44750;52.040;7.472;2023-06-22T19:15:41;101610.31;;;20.18;nan
58973;BME280;44750;52.040;7.472;2023-06-22T19:20:41;101607.78;;;20.17;nan
58973;BME280;44750;52.040;7.472;2023-06-22T19:25:44;101599.53;;;20.17;nan
58973;BME280;44750;52.040;7.472;2023-06-22T19:30:45;101586.22;;;20.20;nan
58973;BME280;44750;52.040;7.472;2023-06-22T19:35:45;101593.50;;;20.28;nan
58973;BME280;44750;52.040;7.472;2023-06-22T19:40:46;101545.19;;;20.19;nan
58973;BME280;44750;52.040;7.472;2023-06-22T19:45:46;101530.59;;;20.18;nan
58973;BME280;44750;52.040;7.472;2023-06-22T19:50:46;101488.78;;;20.01;nan
58973;BME280;44750;52.040;7.472;2023-06-22T19:55:49;101449.78;;;19.69;nan
58973;BME280;44750;52.040;7.472;2023-06-22T20:00:50;101447.81;;;19.63;nan
58973;BME280;44750;52.040;7.472;2023-06-22T20:05:55;101415.88;;;19.41;nan
58973;BME280;44750;52.040;7.472;2023-06-22T20:10:57;101403.50;;;19.30;nan
58973;BME280;44750;52.040;7.472;2023-06-22T20:16:08;101396.22;;;19.00;nan
58973;BME280;44750;52.040;7.472;2023-06-22T20:21:12;101395.75;;;18.97;nan
58973;BME280;44750;52.040;7.472;2023-06-22T20:26:13;101384.88;;;18.88;nan
58973;BME280;44750;52.040;7.472;2023-06-22T20:31:16;101393.84;;;18.97;nan
58973;BME280;44750;52.040;7.472;2023-06-22T20:36:16;101353.09;;;18.64;nan
58973;BME280;44750;52.040;7.472;2023-06-22T20:41:16;101361.63;;;18.54;nan
58973;BME280;44750;52.040;7.472;2023-06-22T20:46:16;101379.78;;;18.55;nan
58973;BME280;44750;52.040;7.472;2023-06-22T20:51:17;101395.75;;;18.52;nan
58973;BME280;44750;52.040;7.472;2023-06-22T20:56:17;101381.88;;;18.38;nan
58973;BME280;44750;52.040;7.472;2023-06-22T21:01:17;101385.53;;;18.31;nan
58973;BME280;44750;52.040;7.472;2023-06-22T21:06:17;101377.59;;;18.06;nan
58973;BME280;44750;52.040;7.472;2023-06-22T21:11:18;101381.72;;;18.02;nan
58973;BME280;44750;52.040;7.472;2023-06-22T21:16:18;101395.31;;;17.95;nan
58973;BME280;44750;52.040;7.472;2023-06-22T21:21:18;101386.84;;;17.82;nan
58973;BME280;44750;52.040;7.472;2023-06-22T21:26:18;101399.69;;;17.81;nan
58973;BME280;44750;52.040;7.472;2023-06-22T21:31:19;101424.53;;;17.80;nan
58973;BME280;44750;52.040;7.472;2023-06-22T21:36:19;101407.00;;;17.66;nan
58973;BME280;44750;52.040;7.472;2023-06-22T21:41:19;101409.31;;;17.54;nan
58973;BME280;44750;52.040;7.472;2023-06-22T21:46:21;101421.53;;;17.43;nan
58973;BME280;44750;52.040;7.472;2023-06-22T21:51:21;101437.78;;;17.45;nan
58973;BME280;44750;52.040;7.472;2023-06-22T21:56:21;101456.63;;;17.40;nan
58973;BME280;44750;52.040;7.472;2023-06-22T22:01:21;101492.34;;;17.46;nan
58973;BME280;44750;52.040;7.472;2023-06-22T22:06:25;101537.44;;;17.59;nan
58973;BME280;44750;52.040;7.472;2023-06-22T22:11:27;101536.94;;;17.55;nan
58973;BME280;44750;52.040;7.472;2023-06-22T22:16:27;101547.03;;;17.54;nan
58973;BME280;44750;52.040;7.472;2023-06-22T22:21:29;101553.00;;;17.58;nan
58973;BME280;44750;52.040;7.472;2023-06-22T22:26:30;101564.53;;;17.45;nan
58973;BME280;44750;52.040;7.472;2023-06-22T22:31:31;101545.28;;;17.30;nan
58973;BME280;44750;52.040;7.472;2023-06-22T22:36:33;101556.06;;;17.24;nan
58973;BME280;44750;52.040;7.472;2023-06-22T22:41:33;101615.84;;;17.43;nan
58973;BME280;44750;52.040;7.472;2023-06-22T22:46:33;101628.16;;;17.39;nan
58973;BME280;44750;52.040;7.472;2023-06-22T22:51:34;101629.22;;;17.38;nan
58973;BME280;44750;52.040;7.472;2023-06-22T22:56:34;101629.38;;;17.45;nan
58973;BME280;44750;52.040;7.472;2023-06-22T23:01:34;101654.81;;;17.53;nan
58973;BME280;44750;52.040;7.472;2023-06-22T23:06:35;101651.56;;;17.58;nan
58973;BME280;44750;52.040;7.472;2023-06-22T23:11:36;101646.41;;;17.55;nan
58973;BME280;44750;52.040;7.472;2023-06-22T23:16:37;101642.84;;;17.54;nan
58973;BME280;44750;52.040;7.472;2023-06-22T23:21:37;101620.47;;;17.43;nan
58973;BME280;44750;52.040;7.472;2023-06-22T23:26:37;101621.66;;;17.40;nan
58973;BME280;44750;52.040;7.472;2023-06-22T23:31:37;101606.31;;;17.31;nan
58973;BME280;44750;52.040;7.472;2023-06-22T23:36:37;101604.13;;;17.26;nan
58973;BME280;44750;52.040;7.472;2023-06-22T23:41:38;101584.81;;;17.11;nan
58973;BME280;44750;52.040;7.472;2023-06-22T23:46:40;101579.53;;;17.01;nan
58973;BME280;44750;52.040;7.472;2023-06-22T23:51:41;101617.13;;;17.16;nan
58973;BME280;44750;52.040;7.472;2023-06-22T23:56:41;101619.50;;;17.19;nan
